Time;durP1;ratioP1;P1;durP2;ratioP2;P2;SDS_P1;SDS_P2;PMS_P1;PMS_P2;Temp;Humidity;BMP_temperature;BMP_pressure;BME280_temperature;BME280_humidity;BME280_pressure;Samples;Min_cycle;Max_cycle;Signal;HPM_P1;HPM_P2
2022/09/23 00:02:21;;;;;;;2.45;0.25;;;6.60;99.90;;;;;;5066193;28;20059;-78
2022/09/23 00:04:47;;;;;;;0.38;0.38;;;6.60;99.90;;;;;;5083163;28;20049;-79
2022/09/23 00:07:12;;;;;;;0.32;0.20;;;6.60;99.90;;;;;;5081845;28;20107;-78
2022/09/23 00:09:38;;;;;;;0.17;0.17;;;6.50;99.90;;;;;;5082150;28;20040;-78
2022/09/23 00:12:04;;;;;;;0.13;0.13;;;6.60;99.90;;;;;;5082878;28;20041;-79
2022/09/23 00:14:30;;;;;;;0.43;0.40;;;6.50;99.90;;;;;;5082742;28;20105;-78
2022/09/23 00:16:56;;;;;;;0.65;0.32;;;6.50;99.90;;;;;;5083642;28;20044;-79
2022/09/23 00:19:21;;;;;;;0.90;0.82;;;6.50;99.90;;;;;;5082446;28;20032;-78
2022/09/23 00:21:47;;;;;;;0.13;0.13;;;6.60;99.90;;;;;;5083036;28;20048;-77
2022/09/23 00:24:14;;;;;;;0.40;0.40;;;6.60;99.90;;;;;;5064709;28;20037;-78
2022/09/23 00:26:40;;;;;;;0.17;0.17;;;6.70;99.90;;;;;;5082337;28;20044;-78
2022/09/23 00:29:06;;;;;;;1.00;0.90;;;6.50;99.90;;;;;;5083267;28;21247;-79
2022/09/23 00:31:31;;;;;;;2.20;0.68;;;6.60;99.90;;;;;;5064909;28;20056;-77
2022/09/23 00:34:00;;;;;;;3.13;1.45;;;6.60;99.90;;;;;;5082308;28;20047;-78
2022/09/23 00:36:26;;;;;;;0.15;0.15;;;6.70;99.90;;;;;;5064780;28;20482;-81
2022/09/23 00:38:53;;;;;;;0.00;0.00;;;6.70;99.90;;;;;;5082093;28;20044;-79
2022/09/23 00:41:20;;;;;;;1.33;1.23;;;6.70;99.90;;;;;;5082252;28;20040;-78
2022/09/23 00:43:54;;;;;;;0.95;0.90;;;6.70;99.90;;;;;;5063064;28;20053;-79
2022/09/23 00:46:35;;;;;;;0.20;0.20;;;6.60;99.90;;;;;;5047562;28;20052;-80
2022/09/23 00:49:08;;;;;;;0.10;0.10;;;6.50;99.90;;;;;;5083383;28;20059;-79
2022/09/23 00:51:40;;;;;;;0.30;0.30;;;6.60;99.90;;;;;;5082390;28;20044;-78
2022/09/23 00:54:06;;;;;;;0.20;0.20;;;6.50;99.90;;;;;;5081180;28;20040;-81
2022/09/23 00:56:32;;;;;;;0.47;0.32;;;6.50;99.90;;;;;;5080748;28;20124;-78
2022/09/23 00:58:59;;;;;;;0.30;0.30;;;6.30;99.90;;;;;;5081039;28;20111;-78
2022/09/23 01:01:25;;;;;;;1.05;0.93;;;7.00;99.90;;;;;;5082731;28;20400;-81
2022/09/23 01:03:53;;;;;;;0.68;0.63;;;6.40;99.90;;;;;;5076251;28;20068;-79
2022/09/23 01:06:19;;;;;;;0.40;0.40;;;6.40;99.90;;;;;;5071004;28;20037;-77
2022/09/23 01:08:46;;;;;;;0.22;0.22;;;6.50;99.90;;;;;;5066637;28;20077;-79
2022/09/23 01:11:40;;;;;;;0.10;0.10;;;6.60;99.90;;;;;;5079099;28;20059;-78
2022/09/23 01:14:33;;;;;;;0.80;0.80;;;6.50;99.90;;;;;;5078960;28;20045;-78
2022/09/23 01:17:14;;;;;;;1.25;0.70;;;6.50;99.90;;;;;;5078843;28;20044;-76
2022/09/23 01:19:55;;;;;;;0.05;0.05;;;6.50;99.90;;;;;;5078818;28;20049;-78
2022/09/23 01:22:35;;;;;;;0.57;0.35;;;6.40;99.90;;;;;;5080279;28;20044;-77
2022/09/23 01:25:25;;;;;;;0.35;0.35;;;6.40;99.90;;;;;;5080129;28;20666;-80
2022/09/23 01:27:51;;;;;;;0.98;0.50;;;6.40;99.90;;;;;;5080642;28;20060;-78
2022/09/23 01:30:32;;;;;;;0.05;0.05;;;6.40;99.90;;;;;;5079119;28;20040;-79
2022/09/23 01:33:17;;;;;;;0.10;0.10;;;6.40;99.90;;;;;;5080494;28;20041;-79
2022/09/23 01:36:01;;;;;;;0.65;0.17;;;6.40;99.90;;;;;;5081172;28;20076;-77
2022/09/23 01:38:36;;;;;;;0.40;0.35;;;6.40;99.90;;;;;;5080039;28;20040;-78
2022/09/23 01:41:20;;;;;;;1.35;1.08;;;6.30;99.90;;;;;;5080580;28;20607;-79
2022/09/23 01:43:56;;;;;;;1.75;0.85;;;6.30;99.90;;;;;;5080200;28;20055;-78
2022/09/23 01:46:40;;;;;;;0.10;0.10;;;6.30;99.90;;;;;;5081643;28;20044;-77
2022/09/23 01:49:13;;;;;;;0.25;0.25;;;6.30;99.90;;;;;;5082417;28;20040;-78
2022/09/23 01:51:51;;;;;;;0.20;0.20;;;6.20;99.90;;;;;;5085328;28;20147;-78
2022/09/23 01:54:45;;;;;;;0.25;0.25;;;6.30;99.90;;;;;;5084178;28;20063;-78
2022/09/23 01:57:17;;;;;;;0.10;0.10;;;6.30;99.90;;;;;;5128202;22;20147;-76
2022/09/23 01:59:51;;;;;;;0.00;0.00;;;6.30;99.90;;;;;;5045869;28;20055;-75
2022/09/23 02:02:30;;;;;;;0.28;0.28;;;6.30;99.90;;;;;;5070536;28;20399;-76
2022/09/23 02:05:01;;;;;;;0.00;0.00;;;6.30;99.90;;;;;;5065553;28;20048;-76
2022/09/23 02:07:32;;;;;;;0.30;0.20;;;6.40;99.90;;;;;;5065327;28;20127;-76
2022/09/23 02:10:22;;;;;;;0.10;0.10;;;6.40;99.90;;;;;;5065074;28;20052;-76
2022/09/23 02:12:52;;;;;;;0.10;0.10;;;6.40;99.90;;;;;;5065138;28;20040;-75
2022/09/23 02:15:24;;;;;;;0.43;0.43;;;6.40;99.90;;;;;;5063302;28;20048;-75
2022/09/23 02:18:00;;;;;;;0.28;0.28;;;6.40;99.90;;;;;;5064694;28;20056;-76
2022/09/23 02:20:31;;;;;;;0.03;0.03;;;6.40;99.90;;;;;;5064730;28;20494;-75
2022/09/23 02:23:06;;;;;;;0.10;0.10;;;6.40;99.90;;;;;;5064876;28;20726;-75
2022/09/23 02:26:02;;;;;;;0.47;0.35;;;6.30;99.90;;;;;;5065125;28;20385;-76
2022/09/23 02:28:33;;;;;;;0.10;0.10;;;6.30;99.90;;;;;;5064603;28;20135;-76
2022/09/23 02:31:12;;;;;;;0.57;0.30;;;6.40;99.90;;;;;;5064212;28;20252;-74
2022/09/23 02:33:55;;;;;;;1.33;0.95;;;6.40;99.90;;;;;;5064768;28;20048;-75
2022/09/23 02:36:25;;;;;;;0.45;0.45;;;6.50;99.90;;;;;;5063879;28;20052;-75
2022/09/23 02:38:59;;;;;;;0.65;0.47;;;6.50;99.90;;;;;;5062495;28;20055;-75
2022/09/23 02:41:43;;;;;;;1.23;0.40;;;6.40;99.90;;;;;;5046546;28;20102;-76
2022/09/23 02:44:15;;;;;;;1.35;0.47;;;6.30;99.90;;;;;;5064237;28;20102;-75
2022/09/23 02:46:44;;;;;;;0.45;0.43;;;6.10;99.90;;;;;;5063825;28;20107;-74
2022/09/23 02:49:16;;;;;;;0.13;0.13;;;6.10;99.90;;;;;;5064075;28;20064;-75
2022/09/23 02:51:43;;;;;;;0.20;0.20;;;6.10;99.90;;;;;;5064032;28;20048;-76
2022/09/23 02:54:13;;;;;;;0.03;0.03;;;6.00;99.90;;;;;;5063905;28;20510;-76
2022/09/23 02:56:40;;;;;;;0.17;0.15;;;6.00;99.90;;;;;;5063830;28;20185;-76
2022/09/23 02:59:08;;;;;;;0.40;0.40;;;6.00;99.90;;;;;;5063890;28;20052;-75
2022/09/23 03:01:52;;;;;;;0.50;0.32;;;5.80;99.90;;;;;;5063926;28;20044;-76
2022/09/23 03:04:55;;;;;;;0.40;0.35;;;5.80;99.90;;;;;;5029556;28;20052;-75
2022/09/23 03:07:41;;;;;;;2.00;0.63;;;5.70;99.90;;;;;;4987446;28;20058;-75
2022/09/23 03:10:25;;;;;;;0.20;0.20;;;5.70;99.90;;;;;;5045675;28;20466;-74
2022/09/23 03:13:28;;;;;;;0.32;0.20;;;5.60;99.90;;;;;;5063929;28;20049;-76
2022/09/23 03:16:13;;;;;;;0.13;0.10;;;5.60;99.90;;;;;;5064551;28;20583;-75
2022/09/23 03:18:50;;;;;;;2.38;0.60;;;5.60;99.90;;;;;;5065611;28;20045;-75
2022/09/23 03:21:28;;;;;;;0.00;0.00;;;5.60;99.90;;;;;;5046259;28;20410;-75
2022/09/23 03:23:58;;;;;;;0.20;0.20;;;5.60;99.90;;;;;;5065147;28;20055;-75
2022/09/23 03:26:30;;;;;;;0.22;0.22;;;5.50;99.90;;;;;;5058909;28;20102;-75
2022/09/23 03:28:57;;;;;;;0.00;0.00;;;5.50;99.90;;;;;;5045747;28;20056;-76
2022/09/23 03:31:24;;;;;;;0.45;0.45;;;5.50;99.90;;;;;;5064517;28;20048;-76
2022/09/23 03:33:53;;;;;;;0.00;0.00;;;5.50;99.90;;;;;;5045631;28;20093;-75
2022/09/23 03:39:17;;;;;;;0.50;0.50;;;5.50;99.90;;;;;;5025741;28;20064;-75
2022/09/23 03:42:04;;;;;;;0.10;0.10;;;5.50;99.90;;;;;;5044307;28;20080;-75
2022/09/23 03:44:36;;;;;;;0.00;0.00;;;5.50;99.90;;;;;;5043530;28;20041;-77
2022/09/23 03:47:03;;;;;;;0.17;0.17;;;5.50;99.90;;;;;;5030552;28;20064;-75
2022/09/23 03:49:32;;;;;;;0.20;0.20;;;5.50;99.90;;;;;;5045103;28;20132;-75
2022/09/23 03:51:59;;;;;;;0.20;0.20;;;5.50;99.90;;;;;;5063453;28;20263;-75
2022/09/23 03:54:28;;;;;;;0.25;0.22;;;5.40;99.90;;;;;;5063273;28;20411;-76
2022/09/23 03:56:58;;;;;;;0.68;0.45;;;5.50;99.90;;;;;;5045020;28;20057;-75
2022/09/23 03:59:29;;;;;;;0.20;0.20;;;5.50;99.90;;;;;;5063094;28;20052;-76
2022/09/23 04:01:55;;;;;;;0.15;0.10;;;5.50;99.90;;;;;;5062903;28;20524;-76
2022/09/23 04:04:21;;;;;;;0.00;0.00;;;5.40;99.90;;;;;;5045002;28;20051;-75
2022/09/23 04:06:47;;;;;;;0.75;0.65;;;5.40;99.90;;;;;;5062335;28;20044;-76
2022/09/23 04:09:13;;;;;;;1.95;0.98;;;5.50;99.90;;;;;;5063204;28;20267;-76
2022/09/23 04:11:39;;;;;;;3.30;1.10;;;5.60;99.90;;;;;;5062062;28;20052;-75
2022/09/23 04:14:06;;;;;;;0.38;0.38;;;5.60;99.90;;;;;;5062965;28;20036;-75
2022/09/23 04:16:31;;;;;;;1.65;0.70;;;5.70;99.90;;;;;;5062765;28;20462;-75
2022/09/23 04:18:57;;;;;;;0.00;0.00;;;5.70;99.90;;;;;;5062631;28;20044;-75
2022/09/23 04:21:22;;;;;;;0.00;0.00;;;5.70;99.90;;;;;;5062815;28;20072;-76
2022/09/23 04:23:48;;;;;;;0.40;0.40;;;5.70;99.90;;;;;;5063037;28;20113;-75
2022/09/23 04:26:14;;;;;;;0.40;0.35;;;5.80;99.90;;;;;;5062593;28;20494;-76
2022/09/23 04:28:40;;;;;;;0.08;0.08;;;5.80;99.90;;;;;;5063014;28;20063;-76
2022/09/23 04:31:07;;;;;;;0.25;0.25;;;5.90;99.90;;;;;;5062959;28;20554;-75
2022/09/23 04:33:33;;;;;;;0.30;0.30;;;5.90;99.90;;;;;;5057695;28;20532;-75
2022/09/23 04:35:59;;;;;;;1.13;0.85;;;5.90;99.90;;;;;;5054186;28;20163;-75
2022/09/23 04:38:25;;;;;;;0.17;0.13;;;5.90;99.90;;;;;;5051719;28;20221;-75
2022/09/23 04:40:50;;;;;;;0.68;0.68;;;5.90;99.90;;;;;;5050094;28;20393;-76
2022/09/23 04:43:16;;;;;;;0.20;0.20;;;5.90;99.90;;;;;;5050767;28;20146;-76
2022/09/23 04:45:43;;;;;;;0.40;0.40;;;5.90;99.90;;;;;;5033758;28;20407;-76
2022/09/23 04:48:09;;;;;;;0.15;0.15;;;6.00;99.90;;;;;;5042410;28;20059;-76
2022/09/23 04:50:36;;;;;;;1.25;0.90;;;6.10;99.90;;;;;;5057738;28;20052;-76
2022/09/23 04:53:03;;;;;;;0.82;0.75;;;6.10;99.90;;;;;;5062196;28;20052;-76
2022/09/23 04:55:29;;;;;;;0.20;0.20;;;6.20;99.90;;;;;;5062287;28;20080;-75
2022/09/23 04:57:54;;;;;;;0.60;0.52;;;6.20;99.90;;;;;;5061996;28;20095;-75
2022/09/23 05:00:22;;;;;;;0.47;0.47;;;6.30;99.90;;;;;;5060600;28;20043;-76
2022/09/23 05:02:49;;;;;;;0.10;0.10;;;6.30;99.90;;;;;;5059864;28;20076;-75
2022/09/23 05:05:19;;;;;;;1.00;0.90;;;7.20;99.90;;;;;;5049339;28;20052;-76
2022/09/23 05:07:44;;;;;;;1.55;1.08;;;6.40;99.90;;;;;;5052711;28;20588;-76
2022/09/23 05:10:19;;;;;;;1.70;1.60;;;6.40;99.90;;;;;;5059396;28;20245;-76
2022/09/23 05:12:45;;;;;;;0.47;0.47;;;6.50;99.90;;;;;;5060095;28;20072;-76
2022/09/23 05:15:11;;;;;;;0.10;0.10;;;6.50;99.90;;;;;;5059808;28;20048;-75
2022/09/23 05:17:37;;;;;;;0.00;0.00;;;6.50;99.90;;;;;;5042666;28;20040;-75
2022/09/23 05:20:03;;;;;;;0.93;0.93;;;6.50;99.90;;;;;;5059370;28;20441;-75
2022/09/23 05:22:29;;;;;;;0.38;0.30;;;6.50;99.90;;;;;;5059368;28;20048;-76
2022/09/23 05:24:55;;;;;;;0.70;0.70;;;6.50;99.90;;;;;;5059970;28;20415;-75
2022/09/23 05:27:21;;;;;;;2.00;0.95;;;6.60;99.90;;;;;;5060310;28;20047;-76
2022/09/23 05:29:47;;;;;;;0.60;0.60;;;6.70;99.90;;;;;;5059942;28;20461;-74
2022/09/23 05:32:14;;;;;;;0.98;0.70;;;6.70;99.90;;;;;;5041992;28;20131;-75
2022/09/23 05:34:40;;;;;;;0.38;0.38;;;6.70;99.90;;;;;;5056428;28;20037;-75
2022/09/23 05:37:05;;;;;;;0.70;0.70;;;6.70;99.90;;;;;;5040441;28;20056;-76
2022/09/23 05:39:31;;;;;;;0.60;0.60;;;6.70;99.90;;;;;;5023969;28;20061;-75
2022/09/23 05:41:59;;;;;;;0.57;0.57;;;6.70;99.90;;;;;;5041837;28;20558;-76
2022/09/23 05:44:25;;;;;;;2.10;0.95;;;6.70;99.90;;;;;;5041944;28;20048;-75
2022/09/23 05:46:50;;;;;;;0.60;0.38;;;6.80;99.90;;;;;;5041702;28;20103;-75
2022/09/23 05:49:16;;;;;;;0.85;0.70;;;6.90;99.90;;;;;;5041607;28;20048;-75
2022/09/23 05:51:42;;;;;;;0.73;0.73;;;7.00;99.90;;;;;;5024248;28;20056;-74
2022/09/23 05:54:07;;;;;;;3.95;1.65;;;7.10;99.90;;;;;;5041603;28;20053;-75
2022/09/23 05:56:34;;;;;;;1.25;1.15;;;7.10;99.90;;;;;;5042390;28;20053;-75
2022/09/23 05:59:01;;;;;;;0.60;0.60;;;7.30;99.90;;;;;;5042358;28;20418;-74
2022/09/23 06:01:30;;;;;;;0.13;0.13;;;7.40;99.90;;;;;;5041780;28;20590;-75
2022/09/23 06:03:57;;;;;;;0.68;0.68;;;7.50;99.90;;;;;;5041589;28;20056;-76
2022/09/23 06:06:34;;;;;;;1.17;0.70;;;7.60;99.90;;;;;;5042016;28;20095;-75
2022/09/23 06:08:59;;;;;;;2.08;0.55;;;7.70;99.90;;;;;;5041861;28;20579;-76
2022/09/23 06:11:26;;;;;;;1.10;0.68;;;7.90;99.90;;;;;;5041753;28;20274;-76
2022/09/23 06:14:02;;;;;;;2.38;1.67;;;8.00;99.90;;;;;;5042344;28;20120;-76
2022/09/23 06:16:34;;;;;;;1.38;0.70;;;8.10;99.90;;;;;;5042012;28;20080;-76
2022/09/23 06:19:07;;;;;;;0.52;0.52;;;8.30;99.90;;;;;;5022915;28;20532;-75
2022/09/23 06:21:34;;;;;;;0.50;0.50;;;8.40;99.90;;;;;;5041468;28;20037;-75
2022/09/23 06:24:00;;;;;;;2.38;1.48;;;8.60;99.90;;;;;;5041488;28;20083;-76
2022/09/23 06:26:29;;;;;;;0.52;0.52;;;8.70;99.90;;;;;;5042084;28;20056;-75
2022/09/23 06:28:55;;;;;;;0.20;0.20;;;8.80;99.90;;;;;;5041272;28;20052;-76
2022/09/23 06:31:21;;;;;;;1.67;0.40;;;9.00;99.90;;;;;;5041246;28;20068;-76
2022/09/23 06:33:48;;;;;;;1.88;1.40;;;9.00;99.90;;;;;;5042138;28;20049;-75
2022/09/23 06:36:14;;;;;;;0.82;0.82;;;9.20;99.90;;;;;;5044550;28;20088;-76
2022/09/23 06:38:44;;;;;;;0.63;0.60;;;9.30;99.90;;;;;;5044540;28;20073;-76
2022/09/23 06:41:10;;;;;;;0.75;0.68;;;9.40;99.90;;;;;;5044853;28;20075;-75
2022/09/23 06:43:36;;;;;;;1.25;0.95;;;9.50;99.90;;;;;;5044764;28;20682;-76
2022/09/23 06:46:03;;;;;;;0.55;0.55;;;9.60;99.90;;;;;;5045359;28;20397;-76
2022/09/23 06:48:30;;;;;;;1.40;0.90;;;9.80;99.90;;;;;;5045197;28;20056;-76
2022/09/23 06:51:01;;;;;;;2.20;1.00;;;10.00;99.90;;;;;;5044605;28;20057;-75
2022/09/23 06:53:30;;;;;;;0.65;0.55;;;10.20;99.90;;;;;;5026530;28;20156;-75
2022/09/23 06:56:01;;;;;;;0.35;0.35;;;10.30;99.90;;;;;;5044987;28;20055;-75
2022/09/23 06:58:31;;;;;;;0.47;0.47;;;10.50;99.90;;;;;;5050771;28;20061;-75
2022/09/23 07:01:08;;;;;;;0.98;0.80;;;10.60;99.90;;;;;;5044753;28;20562;-74
2022/09/23 07:03:34;;;;;;;2.70;1.67;;;10.80;99.90;;;;;;5044444;28;20410;-75
2022/09/23 07:06:00;;;;;;;1.40;1.15;;;10.90;99.90;;;;;;5044280;28;20051;-76
2022/09/23 07:08:28;;;;;;;2.33;0.68;;;11.00;99.90;;;;;;5044379;28;20087;-76
2022/09/23 07:10:55;;;;;;;0.10;0.10;;;11.10;99.90;;;;;;5044005;28;20102;-75
2022/09/23 07:13:22;;;;;;;3.33;0.70;;;11.10;99.90;;;;;;5044201;28;20048;-75
2022/09/23 07:15:59;;;;;;;1.08;0.98;;;11.20;99.90;;;;;;5046805;28;20067;-75
2022/09/23 07:18:27;;;;;;;0.43;0.40;;;11.20;99.90;;;;;;5036214;28;20495;-75
2022/09/23 07:20:57;;;;;;;1.92;1.17;;;11.30;99.90;;;;;;5054102;28;20040;-75
2022/09/23 07:23:24;;;;;;;1.52;0.80;;;11.40;99.90;;;;;;5053913;28;20098;-75
2022/09/23 07:25:50;;;;;;;0.50;0.40;;;11.50;99.90;;;;;;5054396;28;20040;-75
2022/09/23 07:28:19;;;;;;;1.42;1.30;;;11.60;99.90;;;;;;5048950;28;20053;-75
2022/09/23 07:30:45;;;;;;;0.95;0.77;;;11.60;99.90;;;;;;5049212;28;20056;-74
2022/09/23 07:33:11;;;;;;;0.73;0.73;;;11.70;99.90;;;;;;5043526;28;20090;-76
2022/09/23 07:35:41;;;;;;;1.05;1.00;;;11.80;99.90;;;;;;5044686;28;20048;-75
2022/09/23 07:38:08;;;;;;;4.13;1.27;;;11.80;99.90;;;;;;5043995;28;20037;-75
2022/09/23 07:40:34;;;;;;;2.70;0.85;;;11.90;99.90;;;;;;5043855;28;20048;-75
2022/09/23 07:42:59;;;;;;;1.90;1.13;;;11.90;99.90;;;;;;5044770;28;20399;-75
2022/09/23 07:45:26;;;;;;;1.00;0.93;;;12.00;99.90;;;;;;5043959;28;20045;-75
2022/09/23 07:47:54;;;;;;;1.75;1.00;;;12.00;99.90;;;;;;5027504;28;20068;-76
2022/09/23 07:50:21;;;;;;;0.88;0.60;;;12.10;99.90;;;;;;5026452;28;20124;-75
2022/09/23 07:52:51;;;;;;;1.63;1.08;;;12.10;99.90;;;;;;5042612;28;20468;-75
2022/09/23 07:55:17;;;;;;;0.77;0.70;;;12.20;99.90;;;;;;5044029;28;20048;-75
2022/09/23 07:57:43;;;;;;;1.17;0.85;;;12.20;99.90;;;;;;5042202;28;20359;-75
2022/09/23 08:00:09;;;;;;;2.05;0.63;;;12.40;99.90;;;;;;5048250;28;20532;-75
2022/09/23 08:02:35;;;;;;;6.82;1.77;;;12.40;99.90;;;;;;5052432;28;20052;-75
2022/09/23 08:05:01;;;;;;;1.60;1.48;;;12.50;85.60;;;;;;5052086;28;20048;-75
2022/09/23 08:07:26;;;;;;;1.63;0.93;;;12.60;75.50;;;;;;5046433;28;20051;-76
2022/09/23 08:09:52;;;;;;;0.95;0.95;;;12.60;57.40;;;;;;5049274;28;20043;-75
2022/09/23 08:12:17;;;;;;;0.60;0.57;;;12.70;49.30;;;;;;5051698;28;20052;-75
2022/09/23 08:14:43;;;;;;;1.05;0.38;;;12.70;23.30;;;;;;5049420;28;20041;-75
2022/09/23 08:17:11;;;;;;;1.75;1.33;;;12.70;14.70;;;;;;5040557;28;20098;-76
2022/09/23 08:19:36;;;;;;;1.27;0.80;;;12.80;12.90;;;;;;5057250;28;20048;-75
2022/09/23 08:22:02;;;;;;;0.70;0.40;;;12.90;56.50;;;;;;5058859;28;20409;-77
2022/09/23 08:24:31;;;;;;;0.95;0.88;;;13.00;19.90;;;;;;5060413;28;20045;-75
2022/09/23 08:26:57;;;;;;;0.57;0.57;;;13.20;27.50;;;;;;5060466;28;20079;-75
2022/09/23 08:29:24;;;;;;;0.47;0.40;;;13.30;1.00;;;;;;5060747;28;20530;-73
2022/09/23 08:31:50;;;;;;;0.52;0.35;;;13.40;1.00;;;;;;5060127;28;20045;-74
2022/09/23 08:34:18;;;;;;;0.50;0.50;;;13.60;1.00;;;;;;5041796;28;20103;-75
2022/09/23 08:36:44;;;;;;;0.98;0.90;;;13.90;1.00;;;;;;5056074;28;20052;-75
2022/09/23 08:39:16;;;;;;;0.47;0.47;;;14.30;1.00;;;;;;5061935;28;20041;-75
2022/09/23 08:41:48;;;;;;;0.63;0.55;;;14.60;99.90;;;;;;5061759;28;20127;-74
2022/09/23 08:44:30;;;;;;;1.20;0.57;;;14.70;99.90;;;;;;5054845;28;20112;-75
2022/09/23 08:47:11;;;;;;;0.50;0.45;;;15.00;92.40;;;;;;5057453;28;20514;-75
2022/09/23 08:49:51;;;;;;;1.35;1.13;;;15.10;99.90;;;;;;5060888;28;20236;-75
2022/09/23 08:52:34;;;;;;;0.63;0.35;;;15.40;99.90;;;;;;5055461;28;20044;-74
2022/09/23 08:55:02;;;;;;;1.15;0.68;;;15.70;99.90;;;;;;5060510;28;20048;-75
2022/09/23 08:57:41;;;;;;;1.77;1.33;;;16.00;99.90;;;;;;5058542;28;20055;-74
2022/09/23 09:00:23;;;;;;;0.68;0.52;;;16.20;71.50;;;;;;5060236;28;20064;-75
2022/09/23 09:02:49;;;;;;;1.15;0.75;;;16.30;99.90;;;;;;5060709;28;20041;-75
2022/09/23 09:05:24;;;;;;;1.25;1.15;;;16.50;99.90;;;;;;5060079;28;20533;-74
2022/09/23 09:07:52;;;;;;;0.95;0.77;;;16.50;1.00;;;;;;5059506;28;20541;-75
2022/09/23 09:10:24;;;;;;;1.75;1.35;;;16.50;99.90;;;;;;5060138;28;20118;-75
2022/09/23 09:12:59;;;;;;;0.95;0.75;;;16.50;1.00;;;;;;5060120;28;20044;-76
2022/09/23 09:15:26;;;;;;;1.10;0.57;;;16.50;1.00;;;;;;5059692;28;20052;-74
2022/09/23 09:18:11;;;;;;;1.13;1.02;;;16.60;1.00;;;;;;5060267;28;20498;-74
2022/09/23 09:21:08;;;;;;;1.38;0.52;;;16.60;1.00;;;;;;5060469;28;20098;-74
2022/09/23 09:23:44;;;;;;;3.15;1.00;;;16.60;99.90;;;;;;5052554;28;20076;-75
2022/09/23 09:26:21;;;;;;;1.10;0.82;;;16.50;99.90;;;;;;5050153;28;20070;-74
2022/09/23 09:29:12;;;;;;;3.40;1.27;;;16.50;99.90;;;;;;5038657;28;20049;-74
2022/09/23 09:31:38;;;;;;;0.85;0.82;;;16.50;99.90;;;;;;5052849;28;20052;-75
2022/09/23 09:34:10;;;;;;;1.33;0.77;;;16.30;99.90;;;;;;5057658;28;20047;-75
2022/09/23 09:37:07;;;;;;;1.40;1.05;;;16.40;99.90;;;;;;5061160;28;20066;-74
2022/09/23 09:39:34;;;;;;;0.10;0.10;;;16.30;99.90;;;;;;5050722;28;20143;-76
2022/09/23 09:42:00;;;;;;;1.45;0.47;;;16.20;1.00;;;;;;5065641;28;20057;-73
2022/09/23 09:45:18;;;;;;;0.75;0.75;;;16.20;9.80;;;;;;5065952;28;20512;-74
2022/09/23 09:47:55;;;;;;;0.55;0.40;;;16.30;1.00;;;;;;5051459;28;20623;-74
2022/09/23 09:50:48;;;;;;;0.65;0.55;;;16.40;57.80;;;;;;5066396;28;20414;-75
2022/09/23 09:53:24;;;;;;;2.30;1.13;;;16.40;1.00;;;;;;5066657;28;20450;-73
2022/09/23 09:56:03;;;;;;;1.50;1.02;;;16.50;1.00;;;;;;5066318;28;20056;-75
2022/09/23 09:58:53;;;;;;;2.53;1.73;;;16.60;99.90;;;;;;5066589;28;20053;-75
2022/09/23 10:01:24;;;;;;;0.80;0.52;;;16.50;99.90;;;;;;5064756;28;20052;-74
2022/09/23 10:03:52;;;;;;;0.45;0.43;;;16.40;99.90;;;;;;5065656;28;20050;-75
2022/09/23 10:06:24;;;;;;;1.40;0.45;;;16.50;1.00;;;;;;5047503;28;20410;-75
2022/09/23 10:09:18;;;;;;;1.60;0.35;;;16.60;99.90;;;;;;5065551;28;20040;-75
2022/09/23 10:12:09;;;;;;;0.25;0.25;;;16.70;99.90;;;;;;5069923;28;20097;-74
2022/09/23 10:14:35;;;;;;;0.10;0.10;;;16.80;99.90;;;;;;5068736;28;20049;-75
2022/09/23 10:17:06;;;;;;;1.60;0.95;;;16.90;99.90;;;;;;5069745;28;20513;-74
2022/09/23 10:19:36;;;;;;;0.68;0.30;;;17.00;99.90;;;;;;5069027;28;20057;-74
2022/09/23 10:22:07;;;;;;;0.45;0.30;;;17.00;1.00;;;;;;5068635;28;20103;-75
2022/09/23 10:24:35;;;;;;;1.73;0.82;;;16.90;99.90;;;;;;5068642;28;20106;-75
2022/09/23 10:27:03;;;;;;;0.65;0.63;;;17.00;99.90;;;;;;5068343;28;20506;-74
2022/09/23 10:29:32;;;;;;;0.30;0.30;;;16.80;99.90;;;;;;5068738;28;20052;-75
2022/09/23 10:32:24;;;;;;;1.48;0.28;;;16.80;99.90;;;;;;5068710;28;20063;-74
2022/09/23 10:35:14;;;;;;;0.28;0.28;;;16.90;99.90;;;;;;5069390;28;20060;-74
2022/09/23 10:37:41;;;;;;;0.52;0.43;;;17.00;99.90;;;;;;5058981;28;20503;-74
2022/09/23 10:47:08;;;;;;;0.63;0.63;;;17.40;99.90;;;;;;5060399;28;20052;-74
2022/09/23 10:49:54;;;;;;;0.98;0.57;;;17.50;61.30;;;;;;5089403;28;20050;-75
2022/09/23 10:52:26;;;;;;;1.33;0.63;;;17.30;99.90;;;;;;5087692;28;20573;-74
2022/09/23 10:55:00;;;;;;;1.02;0.73;;;17.20;99.90;;;;;;5083628;28;20438;-75
2022/09/23 10:57:42;;;;;;;1.30;0.80;;;17.30;99.90;;;;;;5083271;28;20506;-74
2022/09/23 11:00:26;;;;;;;0.22;0.22;;;17.30;99.90;;;;;;5084274;28;20051;-74
2022/09/23 11:03:11;;;;;;;0.63;0.60;;;17.50;99.90;;;;;;5084539;28;20063;-73
2022/09/23 11:05:55;;;;;;;0.75;0.63;;;17.40;99.90;;;;;;5083332;28;20086;-73
2022/09/23 11:08:40;;;;;;;2.10;1.13;;;17.50;99.90;;;;;;5084365;28;20043;-73
2022/09/23 11:11:34;;;;;;;1.05;0.90;;;17.60;97.60;;;;;;5083610;28;20394;-75
2022/09/23 11:14:16;;;;;;;1.02;0.82;;;17.60;99.90;;;;;;5069161;28;20149;-73
2022/09/23 11:16:52;;;;;;;2.25;1.27;;;17.70;99.90;;;;;;5083392;28;20546;-75
2022/09/23 11:19:36;;;;;;;1.77;1.08;;;18.00;99.90;;;;;;5083007;28;20056;-73
2022/09/23 11:22:36;;;;;;;0.85;0.85;;;18.00;55.30;;;;;;5083074;28;20470;-73
2022/09/23 11:25:16;;;;;;;0.70;0.68;;;18.00;1.00;;;;;;5057244;28;20056;-75
2022/09/23 11:28:20;;;;;;;1.45;0.95;;;17.80;35.10;;;;;;5083252;28;20682;-75
2022/09/23 11:31:05;;;;;;;0.95;0.75;;;18.00;32.50;;;;;;5082952;28;20048;-74
2022/09/23 11:34:02;;;;;;;0.60;0.28;;;18.10;23.70;;;;;;5083091;28;20147;-75
2022/09/23 11:36:47;;;;;;;0.40;0.38;;;18.10;4.50;;;;;;5083806;28;20123;-73
2022/09/23 11:39:22;;;;;;;1.23;1.13;;;18.30;1.00;;;;;;5082527;28;20040;-74
2022/09/23 11:41:53;;;;;;;0.10;0.10;;;18.20;1.00;;;;;;5083436;28;20039;-74
2022/09/23 11:44:35;;;;;;;3.88;1.77;;;18.20;1.00;;;;;;5084281;28;20048;-74
2022/09/23 11:47:14;;;;;;;0.50;0.43;;;18.20;1.00;;;;;;5083852;28;20058;-74
2022/09/23 11:50:24;;;;;;;0.80;0.75;;;18.10;1.00;;;;;;5083362;28;20051;-74
2022/09/23 11:53:01;;;;;;;0.75;0.40;;;18.00;1.00;;;;;;5020234;28;20049;-75
2022/09/23 11:55:40;;;;;;;1.25;0.63;;;17.80;1.00;;;;;;5019828;28;20435;-74
2022/09/23 11:58:17;;;;;;;0.65;0.65;;;17.90;1.00;;;;;;5059292;28;20104;-75
2022/09/23 12:00:53;;;;;;;1.77;1.25;;;17.90;1.00;;;;;;5083751;28;20055;-74
2022/09/23 12:03:39;;;;;;;3.45;1.52;;;17.80;1.00;;;;;;5083825;28;20051;-74
2022/09/23 12:06:19;;;;;;;0.73;0.65;;;17.60;1.00;;;;;;5083321;28;20055;-75
2022/09/23 12:08:44;;;;;;;0.52;0.40;;;17.50;49.00;;;;;;5065414;28;20044;-73
2022/09/23 12:11:32;;;;;;;2.22;1.35;;;17.40;63.30;;;;;;5082179;28;20386;-74
2022/09/23 12:14:09;;;;;;;1.95;0.88;;;17.40;99.90;;;;;;5082055;28;20426;-76
2022/09/23 12:16:54;;;;;;;0.47;0.47;;;17.40;99.90;;;;;;5080515;28;20075;-73
2022/09/23 12:19:23;;;;;;;0.30;0.20;;;17.50;99.90;;;;;;5082021;28;20058;-75
2022/09/23 12:21:55;;;;;;;1.85;0.93;;;17.40;99.90;;;;;;5081231;28;20090;-74
2022/09/23 12:24:20;;;;;;;0.90;0.77;;;17.30;99.90;;;;;;5080910;28;20544;-75
2022/09/23 12:26:55;;;;;;;0.63;0.38;;;17.40;99.90;;;;;;5080753;28;20047;-74
2022/09/23 12:29:22;;;;;;;1.02;0.90;;;17.60;99.90;;;;;;5081109;28;20389;-74
2022/09/23 12:31:48;;;;;;;1.85;1.50;;;17.70;99.90;;;;;;5080617;28;20123;-74
2022/09/23 12:34:40;;;;;;;0.80;0.80;;;17.70;99.90;;;;;;5080898;28;20086;-73
2022/09/23 12:37:06;;;;;;;1.52;0.77;;;17.70;99.90;;;;;;5080740;28;20413;-74
2022/09/23 12:39:37;;;;;;;1.00;0.63;;;17.80;99.90;;;;;;5063641;28;20498;-74
2022/09/23 12:42:18;;;;;;;1.35;0.75;;;18.10;99.90;;;;;;5059954;28;20402;-74
2022/09/23 12:44:46;;;;;;;0.70;0.63;;;18.20;99.90;;;;;;5058895;28;20076;-73
2022/09/23 12:47:24;;;;;;;0.70;0.57;;;18.30;99.90;;;;;;5059436;28;20464;-74
2022/09/23 12:49:52;;;;;;;1.02;0.88;;;18.40;99.90;;;;;;5061884;28;21043;-74
2022/09/23 12:52:17;;;;;;;0.57;0.55;;;18.20;99.90;;;;;;5059897;28;20052;-73
2022/09/23 12:54:45;;;;;;;2.13;1.35;;;18.30;99.90;;;;;;5058735;28;20089;-73
2022/09/23 12:57:13;;;;;;;3.13;1.30;;;18.20;99.90;;;;;;5060039;28;20058;-75
2022/09/23 12:59:51;;;;;;;0.43;0.38;;;18.10;99.90;;;;;;5058945;28;20049;-74
2022/09/23 13:02:36;;;;;;;0.60;0.60;;;18.00;99.90;;;;;;5060141;28;20577;-74
2022/09/23 13:08:01;;;;;;;0.70;0.52;;;17.90;99.90;;;;;;5061362;28;20072;-74
2022/09/23 13:10:32;;;;;;;2.17;0.77;;;18.00;99.90;;;;;;5060964;28;20127;-74
2022/09/23 13:13:01;;;;;;;0.60;0.60;;;17.80;99.90;;;;;;5060868;28;20045;-74
2022/09/23 13:15:33;;;;;;;0.35;0.35;;;17.70;99.90;;;;;;5060823;28;20040;-74
2022/09/23 13:18:18;;;;;;;1.05;0.95;;;17.90;99.90;;;;;;5060129;28;20483;-75
2022/09/23 13:20:45;;;;;;;1.40;0.52;;;18.20;99.90;;;;;;5059688;28;20102;-76
2022/09/23 13:23:21;;;;;;;2.80;1.80;;;18.30;98.80;;;;;;5058589;28;20087;-74
2022/09/23 13:25:50;;;;;;;;;;;18.30;55.90;;;;;;5047913;28;20036;-75
2022/09/23 13:28:37;;;;;;;0.55;0.50;;;18.20;99.90;;;;;;5042148;28;19920;-75
2022/09/23 13:31:05;;;;;;;1.38;0.68;;;18.00;99.90;;;;;;5060194;28;20402;-74
2022/09/23 13:33:41;;;;;;;0.73;0.57;;;18.10;99.90;;;;;;5057870;28;20051;-74
2022/09/23 13:36:12;;;;;;;1.08;0.68;;;18.10;99.90;;;;;;5040768;28;20686;-75